createdAt,value
2019-01-16T00:00:03.182Z,1014.35
2019-01-16T00:05:02.770Z,1014.3
2019-01-16T00:10:03.226Z,1014.33
2019-01-16T00:15:02.647Z,1014.22
2019-01-16T00:20:02.339Z,1014.19
2019-01-16T00:25:01.884Z,1014.25
2019-01-16T00:30:03.223Z,1014.1
2019-01-16T00:35:02.568Z,1014.11
2019-01-16T00:40:03.016Z,1014.05
2019-01-16T00:45:02.441Z,1014.1
2019-01-16T00:50:02.992Z,1014.04
2019-01-16T00:55:02.418Z,1014.03
2019-01-16T01:00:02.839Z,1014.02
2019-01-16T01:05:03.233Z,1013.94
2019-01-16T01:10:02.702Z,1013.9
2019-01-16T01:15:03.153Z,1013.93
2019-01-16T01:20:02.561Z,1013.93
2019-01-16T01:25:02.957Z,1013.86
2019-01-16T01:30:03.359Z,1013.85
2019-01-16T01:35:02.774Z,1013.87
2019-01-16T01:40:03.218Z,1013.84
2019-01-16T01:45:02.668Z,1013.86
2019-01-16T01:50:03.085Z,1013.91
2019-01-16T01:55:02.507Z,1013.84
2019-01-16T02:00:02.843Z,1013.83
2019-01-16T02:05:02.377Z,1013.78
2019-01-16T02:10:02.806Z,1013.84
2019-01-16T02:15:03.235Z,1013.75
2019-01-16T02:20:02.652Z,1013.73
2019-01-16T02:25:03.009Z,1013.67
2019-01-16T02:30:02.430Z,1013.68
2019-01-16T02:35:02.909Z,1013.64
2019-01-16T02:40:02.387Z,1013.53
2019-01-16T02:45:02.709Z,1013.44
2019-01-16T02:50:03.071Z,1013.41
2019-01-16T02:55:02.508Z,1013.34
2019-01-16T03:00:02.930Z,1013.41
2019-01-16T03:05:03.275Z,1013.29
2019-01-16T03:10:02.702Z,1013.29
2019-01-16T03:15:03.132Z,1013.11
2019-01-16T03:20:02.550Z,1013.17
2019-01-16T03:25:02.895Z,1013.08
2019-01-16T03:30:03.250Z,1013.07
2019-01-16T03:35:02.597Z,1012.92
2019-01-16T03:40:03.001Z,1012.94
2019-01-16T03:45:02.461Z,1012.86
2019-01-16T03:50:02.861Z,1012.83
2019-01-16T03:55:03.198Z,1012.71
2019-01-16T04:00:02.613Z,1012.73
2019-01-16T04:05:02.966Z,1012.71
2019-01-16T04:10:02.384Z,1012.61
2019-01-16T04:15:02.832Z,1012.6
2019-01-16T04:20:03.305Z,1012.53
2019-01-16T04:25:02.677Z,1012.42
2019-01-16T04:30:03.027Z,1012.32
2019-01-16T04:35:02.499Z,1012.24
2019-01-16T04:40:03.025Z,1012.21
2019-01-16T04:45:02.414Z,1012.15
2019-01-16T04:50:02.045Z,1012.13
2019-01-16T04:55:02.484Z,1012.08
2019-01-16T05:00:02.843Z,1012.03
2019-01-16T05:05:07.389Z,1012.07
2019-01-16T05:10:02.900Z,1012.01
2019-01-16T05:15:03.331Z,1011.96
2019-01-16T05:20:02.759Z,1011.95
2019-01-16T05:25:03.130Z,1011.8
2019-01-16T05:30:03.035Z,1011.8
2019-01-16T05:35:02.441Z,1011.8
2019-01-16T05:40:02.853Z,1011.74
2019-01-16T05:45:03.328Z,1011.68
2019-01-16T05:50:01.949Z,1011.74
2019-01-16T05:55:03.331Z,1011.59
2019-01-16T06:00:02.712Z,1011.54
2019-01-16T06:05:05.054Z,1011.49
2019-01-16T06:10:02.470Z,1011.5
2019-01-16T06:15:02.819Z,1011.48
2019-01-16T06:20:03.249Z,1011.47
2019-01-16T06:25:02.676Z,1011.38
2019-01-16T06:30:03.122Z,1011.29
2019-01-16T06:35:02.526Z,1011.23
2019-01-16T06:40:02.954Z,1011.23
2019-01-16T06:45:02.522Z,1011.24
2019-01-16T06:50:02.950Z,1011.13
2019-01-16T06:55:03.392Z,1011.22
2019-01-16T07:00:02.834Z,1011.23
2019-01-16T07:05:03.251Z,1011.26
2019-01-16T07:10:02.665Z,1011.21
2019-01-16T07:15:03.009Z,1011.22
2019-01-16T07:20:09.375Z,1011.15
2019-01-16T07:25:03.397Z,1011.21
2019-01-16T07:30:02.721Z,1011.19
2019-01-16T07:35:03.153Z,1011.06
2019-01-16T07:40:02.553Z,1011.07
2019-01-16T07:45:02.914Z,1011.05
2019-01-16T07:50:03.242Z,1011.12
2019-01-16T07:55:01.862Z,1011.12
2019-01-16T08:00:03.625Z,1011.17
2019-01-16T08:05:03.035Z,1011.07
2019-01-16T08:10:02.480Z,1011.11
2019-01-16T08:15:02.912Z,1011.09
2019-01-16T08:20:03.349Z,1011.11
2019-01-16T08:25:02.717Z,1011.15
2019-01-16T08:30:03.448Z,1011.17
2019-01-16T08:35:02.841Z,1011.08
2019-01-16T08:40:03.282Z,1011.05
2019-01-16T08:45:01.885Z,1011.02
2019-01-16T08:50:03.240Z,1010.96
2019-01-16T08:55:02.708Z,1011.04
2019-01-16T09:00:03.113Z,1010.97
2019-01-16T09:05:02.548Z,1010.91
2019-01-16T09:10:03.002Z,1010.92
2019-01-16T09:15:02.334Z,1010.91
2019-01-16T09:20:02.762Z,1010.76
2019-01-16T09:25:03.202Z,1010.79
2019-01-16T09:30:02.574Z,1010.66
2019-01-16T09:35:02.927Z,1010.65
2019-01-16T09:40:02.308Z,1010.51
2019-01-16T09:45:02.683Z,1010.6
2019-01-16T09:50:03.069Z,1010.64
2019-01-16T09:55:02.452Z,1010.64
2019-01-16T10:00:02.781Z,1010.55
2019-01-16T10:05:03.143Z,1010.41
2019-01-16T10:10:02.543Z,1010.38
2019-01-16T10:15:03.097Z,1010.37
2019-01-16T10:20:02.502Z,1010.19
2019-01-16T10:25:02.881Z,1010.34
2019-01-16T10:30:03.327Z,1010.26
2019-01-16T10:35:02.728Z,1010.12
2019-01-16T10:40:03.644Z,1010.29
2019-01-16T10:45:03.084Z,1010.18
2019-01-16T10:50:06.830Z,1010.22
2019-01-16T10:55:03.266Z,1009.95
2019-01-16T11:00:02.673Z,1009.87
2019-01-16T11:05:03.019Z,1009.68
2019-01-16T11:10:02.474Z,1009.64
2019-01-16T11:15:02.885Z,1009.7
2019-01-16T11:20:03.337Z,1009.6
2019-01-16T11:25:02.744Z,1009.46
2019-01-16T11:30:03.089Z,1009.4
2019-01-16T11:35:02.507Z,1009.42
2019-01-16T11:40:04.965Z,1009.4
2019-01-16T11:45:01.768Z,1009.27
2019-01-16T11:50:03.226Z,1009.25
2019-01-16T11:55:02.646Z,1009.13
2019-01-16T12:00:02.979Z,1008.96
2019-01-16T12:05:02.287Z,1008.85
2019-01-16T12:10:02.766Z,1008.9
2019-01-16T12:15:03.186Z,1008.84
2019-01-16T12:20:02.632Z,1008.65
2019-01-16T12:25:03.001Z,1008.47
2019-01-16T12:30:02.359Z,1008.37
2019-01-16T12:35:02.708Z,1008.17
2019-01-16T12:40:03.151Z,1008.21
2019-01-16T12:45:02.552Z,1008.07
2019-01-16T12:50:02.903Z,1007.91
2019-01-16T12:55:03.244Z,1008.08
2019-01-16T13:00:02.659Z,1007.87
2019-01-16T13:05:03.039Z,1007.68
2019-01-16T13:10:02.426Z,1007.53
2019-01-16T13:15:02.774Z,1007.61
2019-01-16T13:20:02.407Z,1007.63
2019-01-16T13:25:02.833Z,1007.42
2019-01-16T13:30:03.182Z,1007.14
2019-01-16T13:35:02.586Z,1007.38
2019-01-16T13:40:03.037Z,1007.31
2019-01-16T13:45:02.459Z,1007.07
2019-01-16T13:50:02.858Z,1006.86
2019-01-16T13:55:03.278Z,1006.88
2019-01-16T14:00:02.648Z,1006.74
2019-01-16T14:05:03.038Z,1006.69
2019-01-16T14:10:02.514Z,1006.68
2019-01-16T14:15:02.831Z,1006.78
2019-01-16T14:20:03.244Z,1006.72
2019-01-16T14:25:02.627Z,1006.6
2019-01-16T14:30:03.065Z,1006.64
2019-01-16T14:35:02.488Z,1006.62
2019-01-16T14:40:02.932Z,1006.44
2019-01-16T14:45:03.267Z,1006.49
2019-01-16T14:50:02.705Z,1006.42
2019-01-16T14:55:06.412Z,1006.45
2019-01-16T15:00:03.000Z,1006.32
2019-01-16T15:05:02.388Z,1006.3
2019-01-16T15:10:02.819Z,1006.06
2019-01-16T15:15:03.173Z,1005.93
2019-01-16T15:20:02.587Z,1005.98
2019-01-16T15:25:02.984Z,1005.83
2019-01-16T15:30:02.340Z,1005.66
2019-01-16T15:35:02.721Z,1005.52
2019-01-16T15:40:03.126Z,1005.4
2019-01-16T15:45:02.539Z,1005.35
2019-01-16T15:50:02.191Z,1005.36
2019-01-16T15:55:02.622Z,1005.34
2019-01-16T16:00:03.055Z,1005.26
2019-01-16T16:05:02.399Z,1005.32
2019-01-16T16:10:02.794Z,1005.23
2019-01-16T16:15:03.191Z,1005.22
2019-01-16T16:20:02.587Z,1005.13
2019-01-16T16:25:02.921Z,1005.22
2019-01-16T16:30:03.373Z,1005.2
2019-01-16T16:35:02.789Z,1005.08
2019-01-16T16:40:03.221Z,1005.03
2019-01-16T16:45:02.555Z,1004.88
2019-01-16T16:50:02.988Z,1004.95
2019-01-16T16:55:02.399Z,1005.05
2019-01-16T17:00:02.783Z,1005.01
2019-01-16T17:05:02.389Z,1004.99
2019-01-16T17:10:02.813Z,1004.9
2019-01-16T17:15:03.274Z,1004.94
2019-01-16T17:20:02.686Z,1004.86
2019-01-16T17:25:03.117Z,1004.83
2019-01-16T17:30:02.490Z,1004.82
2019-01-16T17:35:02.878Z,1004.76
2019-01-16T17:40:03.606Z,1004.6
2019-01-16T17:45:02.939Z,1004.49
2019-01-16T17:50:03.392Z,1004.43
2019-01-16T17:55:02.843Z,1004.35
2019-01-16T18:00:03.443Z,1004.16
2019-01-16T18:05:02.060Z,1004.05
2019-01-16T18:10:01.657Z,1004.0
2019-01-16T18:15:02.239Z,1004.13
2019-01-16T18:20:02.652Z,1003.99
2019-01-16T18:25:02.988Z,1003.98
2019-01-16T18:30:02.321Z,1004.03
2019-01-16T18:35:02.671Z,1003.93
2019-01-16T18:40:03.123Z,1003.9
2019-01-16T18:45:02.785Z,1003.89
2019-01-16T18:50:03.208Z,1003.84
2019-01-16T18:55:02.598Z,1003.79
2019-01-16T19:00:02.974Z,1003.64
2019-01-16T19:05:02.361Z,1003.64
2019-01-16T19:10:02.794Z,1003.57
2019-01-16T19:15:03.139Z,1003.51
2019-01-16T19:20:02.590Z,1003.42
2019-01-16T19:25:03.042Z,1003.2
2019-01-16T19:30:02.456Z,1003.13
2019-01-16T19:35:02.868Z,1003.05
2019-01-16T19:40:03.306Z,1003.02
2019-01-16T19:45:02.770Z,1002.89
2019-01-16T19:50:03.175Z,1002.84
2019-01-16T19:55:02.626Z,1002.64
2019-01-16T20:00:03.025Z,1002.66
2019-01-16T20:05:02.471Z,1002.64
2019-01-16T20:10:02.897Z,1002.7
2019-01-16T20:15:02.541Z,1002.78
2019-01-16T20:20:02.962Z,1002.7
2019-01-16T20:25:03.306Z,1002.69
2019-01-16T20:30:02.672Z,1002.68
2019-01-16T20:35:03.091Z,1002.64
2019-01-16T20:40:02.517Z,1002.67
2019-01-16T20:45:02.967Z,1002.63
2019-01-16T20:50:03.320Z,1002.54
2019-01-16T20:55:02.689Z,1002.43
2019-01-16T21:00:03.131Z,1002.32
2019-01-16T21:05:01.738Z,1002.35
2019-01-16T21:10:02.389Z,1002.32
2019-01-16T21:15:02.885Z,1002.11
2019-01-16T21:20:03.269Z,1002.15
2019-01-16T21:25:02.586Z,1002.05
2019-01-16T21:30:03.026Z,1002.04
2019-01-16T21:35:02.445Z,1002.0
2019-01-16T21:40:02.889Z,1001.81
2019-01-16T21:45:03.260Z,1001.74
2019-01-16T21:50:02.643Z,1001.8
2019-01-16T21:55:02.989Z,1001.79
2019-01-16T22:00:02.412Z,1001.69
2019-01-16T22:05:02.849Z,1001.67
2019-01-16T22:10:03.242Z,1001.61
2019-01-16T22:15:01.800Z,1001.62
2019-01-16T22:20:03.300Z,1001.62
2019-01-16T22:25:02.630Z,1001.52
2019-01-16T22:30:03.449Z,1001.51
2019-01-16T22:35:02.837Z,1001.49
2019-01-16T22:40:03.225Z,1001.49
2019-01-16T22:45:02.646Z,1001.68
2019-01-16T22:50:03.052Z,1001.75
2019-01-16T22:55:02.470Z,1001.83
2019-01-16T23:00:03.123Z,1001.89
2019-01-16T23:05:02.575Z,1001.86
2019-01-16T23:10:03.091Z,1001.85
2019-01-16T23:15:02.434Z,1001.71
2019-01-16T23:20:02.901Z,1001.67
2019-01-16T23:25:03.290Z,1001.58
2019-01-16T23:30:02.734Z,1001.64
2019-01-16T23:35:03.075Z,1001.66
2019-01-16T23:40:02.563Z,1001.68
2019-01-16T23:45:02.911Z,1001.53
2019-01-16T23:50:03.466Z,1001.6
2019-01-16T23:55:02.865Z,1001.62
